Time;durP1;ratioP1;P1;durP2;ratioP2;P2;SDS_P1;SDS_P2;PMS_P1;PMS_P2;Temp;Humidity;BMP_temperature;BMP_pressure;BME280_temperature;BME280_humidity;BME280_pressure;Samples;Min_cycle;Max_cycle;Signal;HPM_P1;HPM_P2
2023/04/16 00:01:11;;;;;;;1999.90;999.90;;;10.20;99.90;;;;;;4870586;29;20045;-74
2023/04/16 00:03:36;;;;;;;1999.90;999.90;;;10.20;99.90;;;;;;4877818;29;20581;-73
2023/04/16 00:06:02;;;;;;;1999.90;999.90;;;10.20;99.90;;;;;;4878992;29;20159;-73
2023/04/16 00:08:28;;;;;;;1999.90;999.90;;;10.10;99.90;;;;;;4878490;29;20064;-73
2023/04/16 00:10:54;;;;;;;1999.90;999.90;;;10.40;99.90;;;;;;4876147;29;20052;-73
2023/04/16 00:13:20;;;;;;;1999.90;999.90;;;10.20;99.90;;;;;;4878020;29;20052;-73
2023/04/16 00:15:45;;;;;;;1999.90;999.90;;;10.20;99.90;;;;;;4860830;29;20056;-72
2023/04/16 00:18:11;;;;;;;1999.90;999.90;;;10.20;99.90;;;;;;4875251;29;20118;-73
2023/04/16 00:20:37;;;;;;;1999.90;999.90;;;10.10;99.90;;;;;;4830677;29;20165;-76
2023/04/16 00:23:02;;;;;;;1999.90;999.90;;;10.10;99.90;;;;;;4878656;29;20055;-73
2023/04/16 00:25:28;;;;;;;1999.90;999.90;;;10.10;99.90;;;;;;4878484;29;20055;-74
2023/04/16 00:27:54;;;;;;;1999.90;999.90;;;8.50;99.90;;;;;;4876340;29;20116;-73
2023/04/16 00:30:20;;;;;;;1999.90;999.90;;;10.10;99.90;;;;;;4876866;29;20053;-73
2023/04/16 00:32:45;;;;;;;1999.90;999.90;;;10.10;99.90;;;;;;4844476;29;20049;-72
2023/04/16 00:35:11;;;;;;;1999.90;999.90;;;10.10;99.90;;;;;;4872544;29;20081;-74
2023/04/16 00:37:37;;;;;;;1999.90;999.90;;;10.10;99.90;;;;;;4870002;29;20049;-76
2023/04/16 00:40:03;;;;;;;1999.90;999.90;;;10.10;99.90;;;;;;4874399;29;20478;-73
2023/04/16 00:42:28;;;;;;;1999.90;999.90;;;10.10;99.90;;;;;;4872879;29;21823;-74
2023/04/16 00:44:54;;;;;;;1999.90;999.90;;;10.10;99.90;;;;;;4871491;29;20559;-76
2023/04/16 00:47:20;;;;;;;1999.90;999.90;;;10.10;99.90;;;;;;4856195;29;20041;-73
2023/04/16 00:49:46;;;;;;;1999.90;999.90;;;10.10;99.90;;;;;;4875545;29;20156;-73
2023/04/16 00:52:12;;;;;;;1999.90;999.90;;;10.10;99.90;;;;;;4870425;29;20045;-73
2023/04/16 00:54:38;;;;;;;1999.90;999.90;;;10.10;99.90;;;;;;4869450;29;20061;-73
2023/04/16 00:57:05;;;;;;;1999.90;999.90;;;10.10;99.90;;;;;;4872277;29;20240;-74
2023/04/16 00:59:31;;;;;;;1999.90;999.90;;;10.10;99.90;;;;;;4874111;29;20119;-74
2023/04/16 01:01:57;;;;;;;1999.90;999.90;;;10.10;99.90;;;;;;4852928;29;20088;-77
2023/04/16 01:04:23;;;;;;;1999.90;999.90;;;10.10;99.90;;;;;;4868808;29;20061;-76
2023/04/16 01:06:49;;;;;;;1999.90;999.90;;;10.10;99.90;;;;;;4872404;29;20105;-74
2023/04/16 01:09:15;;;;;;;1999.90;999.90;;;10.10;99.90;;;;;;4872555;29;20152;-73
2023/04/16 01:11:41;;;;;;;1999.90;999.90;;;10.10;99.90;;;;;;4851054;29;20045;-76
2023/04/16 01:14:07;;;;;;;1999.90;999.90;;;8.10;99.90;;;;;;4873222;29;20045;-73
2023/04/16 01:16:33;;;;;;;1999.90;999.90;;;10.10;99.90;;;;;;4853421;29;20053;-75
2023/04/16 01:18:58;;;;;;;1999.90;999.90;;;10.30;99.90;;;;;;4868684;29;20045;-73
2023/04/16 01:21:25;;;;;;;1999.90;999.90;;;10.10;99.90;;;;;;4862467;29;20041;-73
2023/04/16 01:23:51;;;;;;;1999.90;999.90;;;10.10;99.90;;;;;;4881365;29;20064;-75
2023/04/16 01:26:16;;;;;;;1999.90;999.90;;;10.10;99.90;;;;;;4868805;29;20418;-73
2023/04/16 01:28:42;;;;;;;1999.90;999.90;;;11.30;99.90;;;;;;4853251;29;20185;-73
2023/04/16 01:31:08;;;;;;;1999.90;999.90;;;10.00;99.90;;;;;;4871038;29;20049;-76
2023/04/16 01:33:34;;;;;;;1999.90;999.90;;;10.10;99.90;;;;;;4872130;29;20060;-73
2023/04/16 01:36:00;;;;;;;1999.90;999.90;;;10.10;99.90;;;;;;4873657;29;20088;-74
2023/04/16 01:38:25;;;;;;;1999.90;999.90;;;10.10;99.90;;;;;;4869152;29;20033;-72
2023/04/16 01:40:56;;;;;;;1999.90;999.90;;;10.10;99.90;;;;;;4868031;29;20052;-73
2023/04/16 01:43:22;;;;;;;1999.90;999.90;;;10.10;99.90;;;;;;4870684;29;20138;-72
2023/04/16 01:45:47;;;;;;;1999.90;999.90;;;10.50;62.70;;;;;;4868870;29;20892;-76
2023/04/16 01:48:13;;;;;;;1999.90;999.90;;;10.10;67.90;;;;;;4870157;29;20049;-74
2023/04/16 01:50:39;;;;;;;1999.90;999.90;;;10.10;83.40;;;;;;4837343;29;20048;-73
2023/04/16 01:53:04;;;;;;;1999.90;999.90;;;10.10;55.30;;;;;;4870696;29;20073;-73
2023/04/16 01:55:32;;;;;;;1999.90;999.90;;;10.30;43.70;;;;;;4873489;29;20084;-74
2023/04/16 01:57:58;;;;;;;1999.90;999.90;;;10.10;43.60;;;;;;4873221;29;20041;-74
2023/04/16 02:00:23;;;;;;;1999.90;999.90;;;10.10;49.30;;;;;;4875941;29;20052;-73
2023/04/16 02:02:49;;;;;;;1999.90;999.90;;;10.20;58.10;;;;;;4869054;29;20045;-76
2023/04/16 02:05:15;;;;;;;1999.90;999.90;;;9.90;1.00;;;;;;4874584;29;20112;-73
2023/04/16 02:07:41;;;;;;;1999.90;999.90;;;10.00;1.00;;;;;;4874380;29;20522;-73
2023/04/16 02:10:09;;;;;;;1999.90;999.90;;;10.00;1.00;;;;;;4868129;29;20607;-73
2023/04/16 02:12:34;;;;;;;1999.90;999.90;;;9.90;1.00;;;;;;4872516;29;20113;-74
2023/04/16 02:15:00;;;;;;;1999.90;999.90;;;9.90;1.00;;;;;;4870392;29;20561;-73
2023/04/16 02:17:26;;;;;;;1999.90;999.90;;;9.90;8.00;;;;;;4870403;29;20060;-72
2023/04/16 02:19:51;;;;;;;1999.90;999.90;;;9.90;21.90;;;;;;4871155;29;20426;-74
2023/04/16 02:22:17;;;;;;;1999.90;999.90;;;9.90;11.00;;;;;;4871437;29;20056;-73
2023/04/16 02:24:43;;;;;;;1999.90;999.90;;;9.90;45.30;;;;;;4856149;29;20053;-72
2023/04/16 02:27:08;;;;;;;1999.90;999.90;;;10.30;25.60;;;;;;4869762;29;20627;-74
2023/04/16 02:29:35;;;;;;;1999.90;999.90;;;10.20;39.20;;;;;;4873592;29;20045;-72
2023/04/16 02:32:00;;;;;;;1999.90;999.90;;;10.00;28.10;;;;;;4836677;29;20072;-73
2023/04/16 02:34:26;;;;;;;1999.90;999.90;;;10.00;15.00;;;;;;4872630;29;20479;-73
2023/04/16 02:36:53;;;;;;;1999.90;999.90;;;10.00;8.70;;;;;;4871692;29;20131;-76
2023/04/16 02:39:18;;;;;;;1999.90;999.90;;;10.00;7.80;;;;;;4870682;29;20231;-75
2023/04/16 02:41:44;;;;;;;1999.90;999.90;;;11.90;30.90;;;;;;4864971;29;20497;-72
2023/04/16 02:44:10;;;;;;;1999.90;999.90;;;10.00;22.30;;;;;;4871691;29;20123;-73
2023/04/16 02:46:36;;;;;;;1999.90;999.90;;;10.00;19.10;;;;;;4869385;29;20064;-73
2023/04/16 02:49:01;;;;;;;1999.90;999.90;;;10.00;17.60;;;;;;4872630;29;20045;-72
2023/04/16 02:51:27;;;;;;;1999.90;999.90;;;10.00;24.40;;;;;;4869372;29;20049;-72
2023/04/16 02:53:53;;;;;;;1999.90;999.90;;;10.00;9.60;;;;;;4869763;29;20139;-75
2023/04/16 02:56:19;;;;;;;1999.90;999.90;;;10.00;11.50;;;;;;4868710;29;20127;-72
2023/04/16 02:58:44;;;;;;;1999.90;999.90;;;10.00;5.50;;;;;;4868340;29;20402;-73
2023/04/16 03:01:10;;;;;;;1999.90;999.90;;;10.00;1.00;;;;;;4869680;29;20045;-73
2023/04/16 03:03:36;;;;;;;1999.90;999.90;;;10.30;1.00;;;;;;4870906;29;20053;-73
2023/04/16 03:06:01;;;;;;;1999.90;999.90;;;10.00;1.00;;;;;;4871738;29;20049;-73
2023/04/16 03:08:27;;;;;;;1999.90;999.90;;;10.00;1.00;;;;;;4868966;29;20045;-76
2023/04/16 03:10:53;;;;;;;1999.90;999.90;;;10.00;14.60;;;;;;4870247;29;20490;-75
2023/04/16 03:13:19;;;;;;;1999.90;999.90;;;10.50;1.00;;;;;;4870682;29;20186;-72
2023/04/16 03:15:50;;;;;;;1999.90;999.90;;;9.90;9.10;;;;;;4869787;29;20045;-75
2023/04/16 03:18:16;;;;;;;1999.90;999.90;;;10.00;26.80;;;;;;4875647;29;20055;-73
2023/04/16 03:20:42;;;;;;;1999.90;999.90;;;10.00;42.60;;;;;;4875485;29;20045;-75
2023/04/16 03:23:07;;;;;;;1999.90;999.90;;;10.00;1.00;;;;;;4857306;29;20053;-74
2023/04/16 03:25:33;;;;;;;1999.90;999.90;;;10.20;1.00;;;;;;4868491;29;20051;-73
2023/04/16 03:27:59;;;;;;;1999.90;999.90;;;10.20;1.00;;;;;;4875404;29;20066;-73
2023/04/16 03:30:24;;;;;;;1999.90;999.90;;;10.00;1.00;;;;;;4874452;29;20589;-73
2023/04/16 03:32:50;;;;;;;1999.90;999.90;;;10.00;1.00;;;;;;4870608;29;20123;-73
2023/04/16 03:35:16;;;;;;;1999.90;999.90;;;10.00;1.00;;;;;;4877079;29;20092;-73
2023/04/16 03:37:42;;;;;;;1999.90;999.90;;;10.00;1.00;;;;;;4872305;29;20049;-73
2023/04/16 03:40:08;;;;;;;1999.90;999.90;;;9.90;1.00;;;;;;4854913;29;20510;-76
2023/04/16 03:42:33;;;;;;;1999.90;999.90;;;10.00;1.00;;;;;;4858121;29;20068;-75
2023/04/16 03:45:00;;;;;;;1687.32;759.13;;;9.90;1.00;;;;;;4867669;29;20068;-73
2023/04/16 03:47:25;;;;;;;1999.90;999.90;;;9.90;1.00;;;;;;4872692;29;20053;-73
2023/04/16 03:49:51;;;;;;;1999.90;999.90;;;9.90;1.00;;;;;;4862514;29;20052;-72
2023/04/16 03:52:17;;;;;;;1999.90;999.90;;;9.90;1.00;;;;;;4873751;29;20549;-73
2023/04/16 03:54:42;;;;;;;1999.90;999.90;;;10.30;1.00;;;;;;4855236;29;20048;-73
2023/04/16 03:57:08;;;;;;;1999.90;999.90;;;10.30;1.00;;;;;;4873557;29;20052;-76
2023/04/16 03:59:33;;;;;;;1725.68;762.28;;;9.90;1.00;;;;;;4862174;29;20053;-72
2023/04/16 04:01:59;;;;;;;1999.90;999.90;;;10.40;1.00;;;;;;4873812;29;20068;-76
2023/04/16 04:04:25;;;;;;;1999.90;999.90;;;9.90;1.00;;;;;;4875892;29;20056;-73
2023/04/16 04:06:50;;;;;;;1999.90;999.90;;;9.90;1.00;;;;;;4876824;29;20568;-73
2023/04/16 04:09:16;;;;;;;1999.90;999.90;;;9.90;1.00;;;;;;4877581;29;20045;-74
2023/04/16 04:11:42;;;;;;;1999.90;999.90;;;9.90;1.00;;;;;;4878108;29;20109;-73
2023/04/16 04:14:08;;;;;;;1999.90;999.90;;;10.00;1.00;;;;;;4857818;29;20045;-74
2023/04/16 04:16:34;;;;;;;1999.90;999.90;;;9.90;1.00;;;;;;4859463;29;20402;-73
2023/04/16 04:19:00;;;;;;;1999.90;999.90;;;9.90;1.00;;;;;;4867121;29;20078;-73
2023/04/16 04:21:30;;;;;;;1999.90;999.90;;;9.80;1.00;;;;;;4860964;29;20076;-73
2023/04/16 04:23:56;;;;;;;1999.90;999.90;;;10.10;1.00;;;;;;4876876;29;20156;-73
2023/04/16 04:26:21;;;;;;;1999.90;999.90;;;9.80;1.00;;;;;;4893091;29;20341;-73
2023/04/16 04:28:47;;;;;;;1999.90;999.90;;;9.80;1.00;;;;;;4896883;29;20045;-73
2023/04/16 04:31:13;;;;;;;1999.90;999.90;;;10.20;1.00;;;;;;4881366;29;20056;-73
2023/04/16 04:33:39;;;;;;;1999.90;999.90;;;9.80;1.00;;;;;;4878754;29;20080;-73
2023/04/16 04:36:05;;;;;;;1999.90;999.90;;;8.80;1.00;;;;;;4870723;29;20380;-74
2023/04/16 04:38:31;;;;;;;1999.90;999.90;;;9.80;1.00;;;;;;4868217;29;20056;-73
2023/04/16 04:40:56;;;;;;;1999.90;999.90;;;9.80;1.00;;;;;;4869351;29;20053;-73
2023/04/16 04:43:22;;;;;;;1999.90;999.90;;;9.80;1.00;;;;;;4869691;29;20651;-73
2023/04/16 04:45:48;;;;;;;1999.90;999.90;;;9.90;1.00;;;;;;4868210;29;20080;-73
2023/04/16 04:48:14;;;;;;;1999.90;999.90;;;10.40;1.00;;;;;;4870577;29;20171;-75
2023/04/16 04:50:40;;;;;;;1999.90;999.90;;;11.00;1.00;;;;;;4872531;29;20053;-75
2023/04/16 04:53:09;;;;;;;1999.90;999.90;;;9.90;1.00;;;;;;4875015;29;20453;-73
2023/04/16 04:55:36;;;;;;;1999.90;999.90;;;9.80;1.00;;;;;;4872218;29;20821;-73
2023/04/16 04:58:03;;;;;;;1999.90;999.90;;;9.90;8.40;;;;;;4868552;29;20052;-73
2023/04/16 05:00:30;;;;;;;1999.90;999.90;;;9.80;1.00;;;;;;4865854;29;20112;-76
2023/04/16 05:02:55;;;;;;;1999.90;999.90;;;9.80;1.00;;;;;;4872519;29;20402;-73
2023/04/16 05:05:21;;;;;;;1999.90;999.90;;;9.80;4.10;;;;;;4855023;29;20061;-73
2023/04/16 05:07:47;;;;;;;1999.90;999.90;;;;;;;;;;4854776;29;20049;-73
2023/04/16 05:10:13;;;;;;;1999.90;999.90;;;9.90;1.00;;;;;;4855850;29;20053;-73
2023/04/16 05:12:39;;;;;;;1999.90;999.90;;;9.90;1.00;;;;;;4856029;29;20056;-73
2023/04/16 05:15:05;;;;;;;1999.90;999.90;;;9.90;1.00;;;;;;4872808;29;20088;-76
2023/04/16 05:17:30;;;;;;;1999.90;999.90;;;9.90;1.00;;;;;;4874039;29;20124;-73
2023/04/16 05:19:56;;;;;;;1999.90;999.90;;;10.00;1.00;;;;;;4870779;29;20089;-73
2023/04/16 05:22:22;;;;;;;1999.90;999.90;;;10.00;1.00;;;;;;4872401;29;20045;-73
2023/04/16 05:24:48;;;;;;;1999.90;999.90;;;10.00;1.00;;;;;;4878346;29;20080;-72
2023/04/16 05:27:13;;;;;;;1999.90;999.90;;;10.00;1.00;;;;;;4848935;29;20127;-76
2023/04/16 05:29:39;;;;;;;1999.90;999.90;;;10.00;1.00;;;;;;4867307;29;20045;-73
2023/04/16 05:32:05;;;;;;;1653.50;757.97;;;10.10;99.90;;;;;;4868835;29;20048;-74
2023/04/16 05:34:30;;;;;;;1999.90;999.90;;;10.10;99.90;;;;;;4852907;29;20490;-74
2023/04/16 05:36:56;;;;;;;1999.90;999.90;;;10.10;99.90;;;;;;4868864;29;20049;-74
2023/04/16 05:39:22;;;;;;;1999.90;999.90;;;10.20;99.90;;;;;;4856301;29;20712;-74
2023/04/16 05:41:47;;;;;;;1999.90;999.90;;;10.20;99.90;;;;;;4873384;29;20048;-74
2023/04/16 05:44:14;;;;;;;1720.88;762.75;;;10.40;99.90;;;;;;4871523;29;20060;-74
2023/04/16 05:46:39;;;;;;;1999.90;999.90;;;10.30;99.90;;;;;;4854412;29;20093;-74
2023/04/16 05:49:05;;;;;;;1999.90;999.90;;;10.30;99.90;;;;;;4867683;29;20524;-75
2023/04/16 05:51:32;;;;;;;1999.90;999.90;;;10.30;99.90;;;;;;4866382;29;20080;-74
2023/04/16 05:53:57;;;;;;;1999.90;999.90;;;10.30;99.90;;;;;;4868183;29;20049;-75
2023/04/16 05:56:24;;;;;;;1999.90;999.90;;;10.40;99.90;;;;;;4855097;29;20045;-75
2023/04/16 05:58:50;;;;;;;1999.90;999.90;;;10.40;99.90;;;;;;4875646;29;20054;-75
2023/04/16 06:01:15;;;;;;;1999.90;999.90;;;11.10;72.40;;;;;;4835188;29;20121;-76
2023/04/16 06:03:41;;;;;;;1999.90;999.90;;;10.70;84.50;;;;;;4836586;29;20048;-75
2023/04/16 06:06:08;;;;;;;1999.90;999.90;;;10.40;50.80;;;;;;4857729;29;20167;-75
2023/04/16 06:08:34;;;;;;;1999.90;999.90;;;10.50;29.10;;;;;;4866239;29;20052;-75
2023/04/16 06:10:59;;;;;;;1999.90;999.90;;;10.40;1.00;;;;;;4872764;29;20221;-75
2023/04/16 06:13:25;;;;;;;1999.90;999.90;;;10.40;1.00;;;;;;4871498;29;20127;-75
2023/04/16 06:15:51;;;;;;;1999.90;999.90;;;10.40;1.00;;;;;;4858397;29;20033;-74
2023/04/16 06:18:16;;;;;;;1999.90;999.90;;;10.50;1.00;;;;;;4852794;29;20097;-76
2023/04/16 06:20:42;;;;;;;1999.90;999.90;;;10.60;1.00;;;;;;4872385;29;20132;-75
2023/04/16 06:23:11;;;;;;;1999.90;999.90;;;10.70;1.00;;;;;;4873181;29;20076;-75
2023/04/16 06:25:37;;;;;;;1999.90;999.90;;;10.90;1.00;;;;;;4875389;29;20434;-75
2023/04/16 06:28:02;;;;;;;1999.90;999.90;;;10.80;99.90;;;;;;4854913;29;20045;-75
2023/04/16 06:30:28;;;;;;;1999.90;999.90;;;10.80;99.90;;;;;;4853833;29;20057;-75
2023/04/16 06:32:54;;;;;;;1999.90;999.90;;;10.80;99.90;;;;;;4856660;29;20483;-75
2023/04/16 06:35:20;;;;;;;1999.90;999.90;;;10.90;99.90;;;;;;4869946;29;20056;-76
2023/04/16 06:37:46;;;;;;;1999.90;999.90;;;10.80;99.90;;;;;;4841435;29;20132;-75
2023/04/16 06:40:12;;;;;;;1999.90;999.90;;;10.70;99.90;;;;;;4856044;29;20052;-75
2023/04/16 06:42:37;;;;;;;1999.90;999.90;;;10.70;99.90;;;;;;4850480;29;20092;-75
2023/04/16 06:45:03;;;;;;;1999.90;999.90;;;10.70;99.90;;;;;;4850746;29;20045;-75
2023/04/16 06:47:29;;;;;;;1999.90;999.90;;;11.00;99.90;;;;;;4846786;29;20166;-75
2023/04/16 06:49:55;;;;;;;1726.70;761.60;;;10.80;99.90;;;;;;4871926;29;20116;-75
2023/04/16 06:52:20;;;;;;;1999.90;999.90;;;10.80;99.90;;;;;;4874452;29;20037;-76
2023/04/16 06:54:47;;;;;;;1999.90;999.90;;;10.90;99.90;;;;;;4857939;29;20505;-76
2023/04/16 06:57:13;;;;;;;1999.90;999.90;;;11.00;99.90;;;;;;4869927;29;20049;-77
2023/04/16 06:59:38;;;;;;;1999.90;999.90;;;10.90;99.90;;;;;;4875603;29;20511;-74
2023/04/16 07:02:04;;;;;;;1999.90;999.90;;;10.90;99.90;;;;;;4873561;29;20056;-74
2023/04/16 07:04:30;;;;;;;1999.90;999.90;;;11.00;99.90;;;;;;4854838;29;20595;-75
2023/04/16 07:06:55;;;;;;;1999.90;999.90;;;11.10;99.90;;;;;;4872587;29;20084;-74
2023/04/16 07:09:21;;;;;;;1999.90;999.90;;;11.20;99.90;;;;;;4858216;29;20100;-78
2023/04/16 07:11:47;;;;;;;964.28;53.88;;;11.40;99.90;;;;;;4874240;29;20132;-75
2023/04/16 07:14:13;;;;;;;1999.90;999.90;;;11.40;99.90;;;;;;4856198;29;20058;-76
2023/04/16 07:16:39;;;;;;;1356.60;520.47;;;11.70;99.90;;;;;;4855703;29;20068;-76
2023/04/16 07:19:05;;;;;;;1999.90;999.90;;;11.60;98.70;;;;;;4870563;29;20293;-77
2023/04/16 07:21:30;;;;;;;1999.90;999.90;;;11.70;93.40;;;;;;4871541;29;20068;-77
2023/04/16 07:23:56;;;;;;;1362.47;520.30;;;11.90;80.80;;;;;;4867266;29;20410;-75
2023/04/16 07:26:22;;;;;;;1071.82;282.58;;;12.00;52.50;;;;;;4867412;29;20069;-75
2023/04/16 07:28:47;;;;;;;1999.90;999.90;;;12.10;28.40;;;;;;4854076;29;20037;-75
2023/04/16 07:31:13;;;;;;;1999.90;999.90;;;12.00;1.00;;;;;;4856931;29;20068;-73
2023/04/16 07:33:39;;;;;;;1999.90;999.90;;;12.00;1.00;;;;;;4856494;29;20049;-75
2023/04/16 07:36:05;;;;;;;1999.90;999.90;;;12.00;1.00;;;;;;4856327;29;20534;-76
2023/04/16 07:38:31;;;;;;;1999.90;999.90;;;12.10;1.00;;;;;;4860351;29;20109;-75
2023/04/16 07:40:56;;;;;;;1999.90;999.90;;;11.90;1.00;;;;;;4871649;29;20081;-76
2023/04/16 07:43:22;;;;;;;1999.90;999.90;;;11.90;1.00;;;;;;4846332;29;20053;-76
2023/04/16 07:45:48;;;;;;;1999.90;999.90;;;11.80;1.00;;;;;;4835679;29;20418;-76
2023/04/16 07:48:14;;;;;;;1999.90;999.90;;;11.80;1.00;;;;;;4859127;29;20397;-76
2023/04/16 07:50:42;;;;;;;1999.90;999.90;;;11.90;1.00;;;;;;4839117;29;20131;-75
2023/04/16 07:53:08;;;;;;;1999.90;999.90;;;11.90;1.00;;;;;;4860320;29;20087;-76
2023/04/16 07:55:34;;;;;;;1999.90;999.90;;;11.90;1.00;;;;;;4859024;29;20053;-78
2023/04/16 07:58:00;;;;;;;1999.90;999.90;;;12.00;1.00;;;;;;4877819;29;20055;-76
2023/04/16 08:00:28;;;;;;;1999.90;999.90;;;12.10;1.00;;;;;;4860423;29;20045;-77
2023/04/16 08:02:53;;;;;;;;;;;12.30;1.00;;;;;;4859564;29;20076;-75
2023/04/16 08:05:19;;;;;;;1999.90;999.90;;;12.40;1.00;;;;;;4873457;29;19967;-75
2023/04/16 08:07:45;;;;;;;1999.90;999.90;;;12.50;1.00;;;;;;4862397;29;20303;-76
2023/04/16 08:10:11;;;;;;;1999.90;999.90;;;12.50;1.00;;;;;;4861361;29;20471;-76
2023/04/16 08:12:36;;;;;;;1999.90;999.90;;;12.50;1.00;;;;;;4861134;29;20060;-75
2023/04/16 08:15:02;;;;;;;1999.90;999.90;;;12.60;1.00;;;;;;4861057;29;20132;-75
2023/04/16 08:17:28;;;;;;;1999.90;999.90;;;12.60;1.00;;;;;;4862839;29;20084;-76
2023/04/16 08:19:54;;;;;;;1999.90;999.90;;;12.70;1.00;;;;;;4846795;29;20049;-75
2023/04/16 08:22:21;;;;;;;1999.90;999.90;;;12.90;1.00;;;;;;4878181;29;20056;-75
2023/04/16 08:24:47;;;;;;;1999.90;999.90;;;13.10;99.90;;;;;;4865388;29;20056;-77
2023/04/16 08:27:12;;;;;;;1999.90;999.90;;;13.20;99.90;;;;;;4897526;29;20426;-75
2023/04/16 08:29:39;;;;;;;1999.90;999.90;;;13.30;99.90;;;;;;4846282;29;20698;-75
2023/04/16 08:32:05;;;;;;;1999.90;999.90;;;13.30;99.90;;;;;;4858276;29;20082;-75
2023/04/16 08:34:31;;;;;;;1999.90;999.90;;;13.30;99.90;;;;;;4850512;29;20116;-75
2023/04/16 08:36:57;;;;;;;1999.90;999.90;;;13.20;99.90;;;;;;4861720;29;20557;-76
2023/04/16 08:39:23;;;;;;;1999.90;999.90;;;13.20;99.90;;;;;;4862900;29;20390;-76
2023/04/16 08:41:50;;;;;;;1999.90;999.90;;;13.20;99.90;;;;;;4859774;29;20055;-76
2023/04/16 08:44:25;;;;;;;1999.90;999.90;;;13.50;99.90;;;;;;4844972;29;20064;-75
2023/04/16 08:46:57;;;;;;;1999.90;999.90;;;13.50;99.90;;;;;;4870186;29;20096;-75
2023/04/16 08:49:26;;;;;;;1999.90;999.90;;;13.80;99.90;;;;;;4861911;29;20059;-75
2023/04/16 08:51:56;;;;;;;1999.90;999.90;;;14.10;99.90;;;;;;4875362;29;20085;-76
2023/04/16 08:54:38;;;;;;;1999.90;999.90;;;14.30;99.90;;;;;;4861651;29;20049;-77
2023/04/16 08:57:06;;;;;;;1999.90;999.90;;;14.60;99.90;;;;;;4878306;29;20057;-76
2023/04/16 08:59:32;;;;;;;1999.90;999.90;;;15.00;99.90;;;;;;4875977;29;20059;-78
2023/04/16 09:01:59;;;;;;;1999.90;999.90;;;15.50;99.90;;;;;;4840198;29;20208;-77
2023/04/16 09:04:27;;;;;;;1999.90;999.90;;;15.80;99.90;;;;;;4860819;29;20056;-78
2023/04/16 09:06:56;;;;;;;1999.90;999.90;;;16.10;99.90;;;;;;4876249;29;20402;-76
2023/04/16 09:09:22;;;;;;;1999.90;999.90;;;16.40;99.90;;;;;;4875984;29;20080;-75
2023/04/16 09:11:52;;;;;;;1999.90;999.90;;;16.70;99.90;;;;;;4859237;29;20505;-76
2023/04/16 09:14:19;;;;;;;1999.90;999.90;;;17.10;99.90;;;;;;4877147;29;20041;-77
2023/04/16 09:16:46;;;;;;;1999.90;999.90;;;17.30;99.90;;;;;;4857718;29;20407;-77
2023/04/16 09:19:13;;;;;;;1999.90;999.90;;;17.40;99.90;;;;;;4856121;29;20049;-77
2023/04/16 09:21:41;;;;;;;1999.90;999.90;;;17.40;99.90;;;;;;4877439;29;20379;-77
2023/04/16 09:24:08;;;;;;;1999.90;999.90;;;17.50;99.90;;;;;;4857043;29;20060;-77
2023/04/16 09:26:34;;;;;;;1999.90;999.90;;;17.50;99.90;;;;;;4867715;29;20044;-76
2023/04/16 09:29:00;;;;;;;1999.90;999.90;;;17.50;99.90;;;;;;4845947;29;20045;-78
2023/04/16 09:31:26;;;;;;;1999.90;999.90;;;17.60;99.90;;;;;;4859825;29;20056;-76
2023/04/16 09:34:07;;;;;;;1999.90;999.90;;;17.60;99.90;;;;;;4861537;29;20049;-76
2023/04/16 09:36:34;;;;;;;1999.90;999.90;;;17.70;99.90;;;;;;4859858;29;20135;-77
2023/04/16 09:39:00;;;;;;;1999.90;999.90;;;17.80;99.90;;;;;;4861014;29;20076;-76
2023/04/16 09:41:31;;;;;;;1999.90;999.90;;;17.90;99.90;;;;;;4860352;29;20160;-76
2023/04/16 09:43:59;;;;;;;1999.90;999.90;;;18.00;99.90;;;;;;4877059;29;20045;-77
2023/04/16 09:46:35;;;;;;;;;;;18.50;99.90;;;;;;4860215;29;20065;-77
2023/04/16 09:49:14;;;;;;;1999.90;999.90;;;18.80;99.90;;;;;;4857392;29;20025;-78
2023/04/16 09:51:40;;;;;;;1999.90;999.90;;;19.00;99.90;;;;;;4842923;29;20080;-76
2023/04/16 09:54:06;;;;;;;1999.90;999.90;;;19.10;99.90;;;;;;4859154;29;20096;-76
2023/04/16 09:56:32;;;;;;;1999.90;999.90;;;19.30;99.90;;;;;;4875276;29;20052;-76
2023/04/16 09:59:01;;;;;;;1999.90;999.90;;;19.50;99.90;;;;;;4849715;29;20427;-75
2023/04/16 10:01:30;;;;;;;1595.55;559.10;;;19.70;95.40;;;;;;4877944;29;20186;-76
2023/04/16 10:03:57;;;;;;;1999.90;999.90;;;20.00;91.90;;;;;;4848646;29;20089;-76
2023/04/16 10:06:26;;;;;;;1999.90;999.90;;;20.30;90.20;;;;;;4846886;29;20111;-76
2023/04/16 10:08:55;;;;;;;1999.90;999.90;;;20.40;80.50;;;;;;4876371;29;20128;-75
2023/04/16 10:11:22;;;;;;;1999.90;999.90;;;20.50;74.80;;;;;;4861106;29;20112;-75
2023/04/16 10:13:49;;;;;;;1999.90;999.90;;;20.70;71.10;;;;;;4859987;29;20128;-76
2023/04/16 10:16:16;;;;;;;1999.90;999.90;;;20.80;62.30;;;;;;4875939;29;20110;-77
2023/04/16 10:18:44;;;;;;;1999.90;999.90;;;21.10;56.50;;;;;;4857744;29;20060;-76
2023/04/16 10:21:11;;;;;;;1999.90;571.42;;;21.50;54.00;;;;;;4856689;29;20053;-76
2023/04/16 10:23:42;;;;;;;1999.90;796.90;;;21.60;45.40;;;;;;4879357;29;20061;-76
2023/04/16 10:26:08;;;;;;;1999.90;999.90;;;21.70;38.90;;;;;;4865557;29;20128;-76
2023/04/16 10:28:34;;;;;;;1999.90;999.90;;;21.60;35.70;;;;;;4878023;29;20092;-75
2023/04/16 10:31:03;;;;;;;1999.90;754.30;;;21.80;37.00;;;;;;4859688;29;20064;-76
2023/04/16 10:33:32;;;;;;;1999.90;898.85;;;21.90;30.50;;;;;;4856215;29;20481;-76
2023/04/16 10:36:08;;;;;;;1999.90;892.90;;;22.00;29.40;;;;;;4877196;29;20068;-76
2023/04/16 10:38:36;;;;;;;1999.90;979.85;;;22.10;29.60;;;;;;4878359;29;20060;-76
2023/04/16 10:41:04;;;;;;;1999.90;905.55;;;22.10;25.80;;;;;;4878060;29;20045;-75
2023/04/16 10:43:32;;;;;;;1999.90;999.90;;;22.10;23.70;;;;;;4849184;29;20139;-75
2023/04/16 10:46:15;;;;;;;;;;;22.00;21.30;;;;;;4862299;29;20108;-75
2023/04/16 10:48:41;;;;;;;1999.90;999.90;;;22.00;16.90;;;;;;4878636;29;20325;-78
2023/04/16 10:51:28;;;;;;;1999.90;999.90;;;22.00;20.50;;;;;;4862417;29;20140;-75
2023/04/16 10:53:55;;;;;;;1999.90;999.90;;;22.00;14.20;;;;;;4874094;29;20061;-76
2023/04/16 10:56:26;;;;;;;1999.90;999.90;;;21.90;13.80;;;;;;4864051;29;20061;-75
2023/04/16 10:58:55;;;;;;;1999.90;999.90;;;21.80;14.90;;;;;;4878567;29;20124;-76
2023/04/16 11:01:36;;;;;;;1999.90;999.90;;;21.70;14.10;;;;;;4876425;29;20056;-76
2023/04/16 11:04:25;;;;;;;1999.90;999.90;;;21.80;14.00;;;;;;4846806;29;20144;-77
2023/04/16 11:07:15;;;;;;;1999.90;999.90;;;21.90;9.50;;;;;;4871099;29;20061;-77
2023/04/16 11:10:02;;;;;;;1999.90;999.90;;;22.10;7.40;;;;;;4879358;29;20087;-77
2023/04/16 11:12:28;;;;;;;1999.90;999.90;;;22.20;2.20;;;;;;4869220;29;20048;-76
2023/04/16 11:15:02;;;;;;;1999.90;999.90;;;22.20;9.60;;;;;;4857345;29;20053;-77
2023/04/16 11:17:31;;;;;;;1999.90;983.05;;;22.00;4.00;;;;;;4871988;29;20525;-77
2023/04/16 11:19:57;;;;;;;1999.90;991.55;;;22.10;7.30;;;;;;4874742;29;20502;-78
2023/04/16 11:22:24;;;;;;;1999.90;999.90;;;20.50;6.10;;;;;;4859053;29;20113;-78
2023/04/16 11:24:56;;;;;;;1999.90;999.90;;;22.10;5.20;;;;;;4868871;29;20169;-79
2023/04/16 11:27:23;;;;;;;1999.90;999.90;;;21.90;2.60;;;;;;4870860;29;20053;-76
2023/04/16 11:30:03;;;;;;;1999.90;999.90;;;21.80;4.10;;;;;;4873262;29;20503;-79
2023/04/16 11:32:34;;;;;;;1999.90;990.55;;;21.90;4.10;;;;;;4875314;29;20057;-77
2023/04/16 11:35:03;;;;;;;1999.90;999.90;;;21.80;2.70;;;;;;4875923;29;20498;-76
2023/04/16 11:37:37;;;;;;;1999.90;999.90;;;21.70;3.00;;;;;;4856990;29;20155;-75
2023/04/16 11:40:08;;;;;;;1999.90;911.85;;;21.60;4.30;;;;;;4849530;29;20092;-75
2023/04/16 11:42:39;;;;;;;1999.90;999.90;;;21.20;6.40;;;;;;4857468;29;20056;-76
2023/04/16 11:45:06;;;;;;;1999.90;999.90;;;20.90;9.10;;;;;;4861334;29;20045;-77
2023/04/16 11:47:50;;;;;;;1999.90;878.88;;;20.70;9.60;;;;;;4874938;29;20068;-76
2023/04/16 11:50:23;;;;;;;1999.90;924.17;;;20.70;3.40;;;;;;4862914;29;20049;-76
2023/04/16 11:52:51;;;;;;;1999.90;705.85;;;20.50;10.20;;;;;;4875722;29;20061;-76
2023/04/16 11:55:17;;;;;;;1999.90;974.63;;;20.50;13.30;;;;;;4862919;29;20494;-76
2023/04/16 11:57:43;;;;;;;1999.90;761.88;;;20.60;11.80;;;;;;4862644;29;20056;-76
2023/04/16 12:00:11;;;;;;;1999.90;999.90;;;20.80;14.80;;;;;;4858454;29;20474;-76
2023/04/16 12:02:43;;;;;;;1999.90;837.42;;;20.90;10.80;;;;;;4857129;29;20056;-76
2023/04/16 12:05:37;;;;;;;1999.90;999.90;;;20.90;8.60;;;;;;4862015;29;20071;-76